Time;durP1;ratioP1;P1;durP2;ratioP2;P2;SDS_P1;SDS_P2;PMS_P1;PMS_P2;Temp;Humidity;BMP_temperature;BMP_pressure;BME280_temperature;BME280_humidity;BME280_pressure;Samples;Min_cycle;Max_cycle;Signal;HPM_P1;HPM_P2
2023/12/27 00:01:50;;;;;;;11.57;3.90;;;3.90;99.90;;;;;;4955357;28;20074;-75
2023/12/27 00:04:17;;;;;;;14.60;3.38;;;3.80;99.90;;;;;;4954145;28;20048;-75
2023/12/27 00:06:43;;;;;;;10.88;4.43;;;3.90;99.90;;;;;;4960165;28;20039;-74
2023/12/27 00:09:08;;;;;;;12.10;4.25;;;3.80;99.90;;;;;;4972433;28;20034;-75
2023/12/27 00:11:35;;;;;;;14.50;4.43;;;3.80;99.90;;;;;;4955687;28;20554;-75
2023/12/27 00:14:00;;;;;;;11.50;3.95;;;3.80;99.90;;;;;;4964876;28;20062;-76
2023/12/27 00:16:26;;;;;;;17.45;3.88;;;3.80;99.90;;;;;;4954543;28;20078;-74
2023/12/27 00:18:51;;;;;;;11.57;3.97;;;3.80;99.90;;;;;;4965499;28;20031;-74
2023/12/27 00:21:17;;;;;;;12.88;4.45;;;3.70;99.90;;;;;;4952131;28;20047;-74
2023/12/27 00:23:42;;;;;;;13.13;4.50;;;3.70;99.90;;;;;;4962471;28;20034;-77
2023/12/27 00:26:08;;;;;;;14.25;4.30;;;3.70;99.90;;;;;;4958254;28;20047;-74
2023/12/27 00:28:34;;;;;;;14.55;4.40;;;3.70;99.90;;;;;;4956453;28;20122;-74
2023/12/27 00:30:59;;;;;;;12.10;4.15;;;3.70;99.90;;;;;;4955200;28;20556;-75
2023/12/27 00:33:25;;;;;;;12.90;3.80;;;3.70;99.90;;;;;;4959982;28;20042;-76
2023/12/27 00:35:50;;;;;;;12.65;4.65;;;3.70;99.90;;;;;;4963033;28;20043;-74
2023/12/27 00:38:16;;;;;;;11.45;4.15;;;3.70;99.90;;;;;;4959636;28;20046;-74
2023/12/27 00:40:41;;;;;;;20.63;5.35;;;3.60;99.90;;;;;;4956010;28;20049;-74
2023/12/27 00:43:07;;;;;;;11.95;5.25;;;3.60;99.90;;;;;;4960094;28;20043;-77
2023/12/27 00:45:32;;;;;;;13.40;5.10;;;3.60;99.90;;;;;;4952883;28;20106;-76
2023/12/27 00:47:58;;;;;;;14.23;5.05;;;3.60;99.90;;;;;;4986770;28;20054;-77
2023/12/27 00:50:23;;;;;;;15.65;5.63;;;3.60;99.90;;;;;;4960068;28;20073;-74
2023/12/27 00:52:49;;;;;;;13.27;5.13;;;3.60;99.90;;;;;;4955931;28;20631;-77
2023/12/27 00:55:14;;;;;;;14.35;5.38;;;3.50;99.90;;;;;;4969968;28;20101;-74
2023/12/27 00:57:40;;;;;;;11.27;4.65;;;3.50;99.90;;;;;;4954275;28;20051;-74
2023/12/27 01:00:06;;;;;;;11.23;4.90;;;3.50;99.90;;;;;;4960259;28;20134;-75
2023/12/27 01:02:34;;;;;;;13.68;4.97;;;3.40;99.90;;;;;;4964662;28;20494;-74
2023/12/27 01:05:00;;;;;;;15.20;5.00;;;3.40;99.90;;;;;;4960269;28;20788;-74
2023/12/27 01:07:26;;;;;;;10.95;4.72;;;3.30;99.90;;;;;;4959752;28;20050;-75
2023/12/27 01:09:51;;;;;;;10.68;5.22;;;3.30;99.90;;;;;;4960666;28;20073;-77
2023/12/27 01:12:17;;;;;;;13.18;5.13;;;3.30;99.90;;;;;;4959898;28;20035;-74
2023/12/27 01:14:43;;;;;;;11.82;4.70;;;3.30;99.90;;;;;;4958170;28;20073;-74
2023/12/27 01:17:09;;;;;;;11.82;5.20;;;3.20;99.90;;;;;;4960301;28;20082;-74
2023/12/27 01:19:35;;;;;;;14.43;5.43;;;3.20;99.90;;;;;;4966438;28;20561;-74
2023/12/27 01:22:00;;;;;;;13.80;5.38;;;3.20;99.90;;;;;;4960300;28;20059;-74
2023/12/27 01:24:26;;;;;;;12.98;5.47;;;3.20;99.90;;;;;;4959064;28;20121;-81
2023/12/27 01:26:52;;;;;;;10.95;4.63;;;3.10;99.90;;;;;;4953446;28;20036;-74
2023/12/27 01:29:18;;;;;;;12.18;4.97;;;3.10;99.90;;;;;;4968340;28;20051;-74
2023/12/27 01:31:43;;;;;;;10.98;4.82;;;3.10;99.90;;;;;;4981488;28;20506;-75
2023/12/27 01:34:09;;;;;;;13.57;5.38;;;3.10;99.90;;;;;;4970609;28;20049;-77
2023/12/27 01:36:35;;;;;;;17.00;7.13;;;3.10;99.90;;;;;;4955113;28;20094;-75
2023/12/27 01:39:01;;;;;;;30.88;13.73;;;3.20;99.90;;;;;;4951698;28;20075;-77
2023/12/27 01:41:26;;;;;;;35.00;15.52;;;3.20;99.90;;;;;;4951064;28;20058;-74
2023/12/27 01:43:52;;;;;;;23.38;13.05;;;3.20;99.90;;;;;;4958356;28;20123;-74
2023/12/27 01:46:18;;;;;;;20.13;10.73;;;3.20;99.90;;;;;;4962062;28;20057;-75
2023/12/27 01:48:44;;;;;;;14.30;6.95;;;3.20;99.90;;;;;;4955923;28;20046;-74
2023/12/27 01:51:12;;;;;;;14.50;8.95;;;3.20;99.90;;;;;;4962512;28;20555;-74
2023/12/27 01:53:39;;;;;;;14.07;7.43;;;3.20;99.90;;;;;;4959976;28;20404;-74
2023/12/27 01:56:05;;;;;;;10.05;5.32;;;3.20;99.90;;;;;;4959923;28;20110;-74
2023/12/27 01:58:32;;;;;;;10.02;4.22;;;3.20;99.90;;;;;;4958258;28;20055;-77
2023/12/27 02:00:58;;;;;;;9.80;3.63;;;3.20;99.90;;;;;;4963717;28;20058;-76
2023/12/27 02:03:24;;;;;;;7.13;3.53;;;3.20;99.90;;;;;;4953002;28;20053;-74
2023/12/27 02:05:51;;;;;;;6.32;3.60;;;3.10;99.90;;;;;;4950079;28;20051;-76
2023/12/27 02:08:18;;;;;;;10.90;3.67;;;3.10;99.90;;;;;;4962588;28;20035;-74
2023/12/27 02:10:43;;;;;;;8.95;3.80;;;3.10;99.90;;;;;;4963637;28;20047;-77
2023/12/27 02:13:09;;;;;;;8.63;3.50;;;3.00;99.90;;;;;;4964483;28;20537;-75
2023/12/27 02:15:35;;;;;;;7.07;3.47;;;3.00;99.90;;;;;;4970059;28;20065;-75
2023/12/27 02:18:05;;;;;;;7.35;3.80;;;3.00;99.90;;;;;;4962582;28;20055;-75
2023/12/27 02:20:31;;;;;;;12.25;4.28;;;3.00;99.90;;;;;;4955652;28;20035;-74
2023/12/27 02:22:59;;;;;;;10.27;4.07;;;3.00;99.90;;;;;;4961471;28;20049;-75
2023/12/27 02:25:26;;;;;;;10.15;3.63;;;3.00;99.90;;;;;;4958836;28;20402;-74
2023/12/27 02:27:52;;;;;;;8.82;3.95;;;3.00;99.90;;;;;;4962916;28;20571;-77
2023/12/27 02:30:19;;;;;;;9.40;3.88;;;2.90;99.90;;;;;;4956476;28;20051;-76
2023/12/27 02:32:45;;;;;;;9.40;3.65;;;2.90;99.90;;;;;;4950383;28;20054;-74
2023/12/27 02:35:11;;;;;;;7.65;3.47;;;2.90;99.90;;;;;;4953059;28;20545;-74
2023/12/27 02:37:37;;;;;;;5.20;3.17;;;2.90;99.90;;;;;;4957158;28;20134;-74
2023/12/27 02:40:03;;;;;;;6.88;3.40;;;2.90;99.90;;;;;;4949698;28;20055;-75
2023/12/27 02:42:29;;;;;;;9.15;3.85;;;2.90;99.90;;;;;;4961265;28;20096;-75
2023/12/27 02:44:55;;;;;;;9.18;3.55;;;2.90;99.90;;;;;;4965422;28;20055;-74
2023/12/27 02:47:20;;;;;;;6.60;3.28;;;3.00;99.90;;;;;;4954157;28;20039;-77
2023/12/27 02:49:46;;;;;;;7.90;3.67;;;3.00;99.90;;;;;;4958962;28;20046;-75
2023/12/27 02:52:12;;;;;;;9.52;3.50;;;3.00;99.90;;;;;;4955783;28;20047;-74
2023/12/27 02:54:37;;;;;;;8.40;3.20;;;3.00;99.90;;;;;;4974033;28;20047;-74
2023/12/27 02:57:03;;;;;;;6.45;3.40;;;3.00;99.90;;;;;;4959114;28;20053;-79
2023/12/27 02:59:28;;;;;;;7.53;3.65;;;3.00;99.90;;;;;;4966963;28;20073;-78
2023/12/27 03:01:54;;;;;;;7.50;3.90;;;3.10;99.90;;;;;;4974367;28;20557;-74
2023/12/27 03:04:20;;;;;;;8.60;3.63;;;3.10;99.90;;;;;;4960718;28;20501;-74
2023/12/27 03:06:45;;;;;;;7.13;3.45;;;3.10;99.90;;;;;;4958439;28;20470;-74
2023/12/27 03:09:11;;;;;;;5.85;3.60;;;3.10;99.90;;;;;;4933203;28;20043;-74
2023/12/27 03:11:37;;;;;;;6.28;3.65;;;3.10;99.90;;;;;;4954882;28;20051;-74
2023/12/27 03:14:02;;;;;;;8.18;3.50;;;3.10;99.90;;;;;;4954601;28;20101;-75
2023/12/27 03:16:28;;;;;;;10.95;3.80;;;3.10;99.90;;;;;;4955539;28;20055;-74
2023/12/27 03:18:54;;;;;;;5.85;3.53;;;3.10;99.90;;;;;;4959211;28;20046;-74
2023/12/27 03:21:20;;;;;;;7.03;3.45;;;3.10;99.90;;;;;;4967495;28;20392;-74
2023/12/27 03:23:47;;;;;;;7.20;3.65;;;3.40;99.90;;;;;;4958615;28;20054;-77
2023/12/27 03:26:12;;;;;;;10.07;4.05;;;3.10;99.90;;;;;;4955000;28;20046;-76
2023/12/27 03:28:38;;;;;;;6.10;3.40;;;3.10;99.90;;;;;;4941116;28;20047;-75
2023/12/27 03:31:03;;;;;;;8.40;3.90;;;3.10;99.90;;;;;;4969702;28;20038;-77
2023/12/27 03:33:29;;;;;;;6.88;3.67;;;3.10;99.90;;;;;;4967590;28;20086;-74
2023/12/27 03:35:55;;;;;;;6.57;3.55;;;3.10;99.90;;;;;;4956444;28;20043;-74
2023/12/27 03:38:20;;;;;;;6.00;3.63;;;3.10;99.90;;;;;;4965877;28;20042;-74
2023/12/27 03:40:46;;;;;;;11.07;4.32;;;3.10;99.90;;;;;;4952833;28;20057;-77
2023/12/27 03:43:11;;;;;;;8.45;4.30;;;3.10;99.90;;;;;;4958767;28;20057;-74
2023/12/27 03:45:37;;;;;;;10.10;3.95;;;3.10;99.90;;;;;;4960888;28;20140;-74
2023/12/27 03:48:03;;;;;;;7.72;3.90;;;3.10;99.90;;;;;;4957341;28;20517;-77
2023/12/27 03:50:29;;;;;;;8.02;4.10;;;3.10;99.90;;;;;;4960637;28;20054;-74
2023/12/27 03:52:54;;;;;;;11.18;4.32;;;3.10;99.90;;;;;;4957724;28;20039;-77
2023/12/27 03:55:23;;;;;;;7.35;4.18;;;3.10;99.90;;;;;;4958791;28;20050;-76
2023/12/27 03:57:49;;;;;;;7.97;4.13;;;3.10;99.90;;;;;;4956626;28;20485;-74
2023/12/27 04:00:15;;;;;;;7.72;3.70;;;3.10;99.90;;;;;;4955525;28;20163;-77
2023/12/27 04:02:40;;;;;;;8.20;3.95;;;3.10;99.90;;;;;;4960102;28;20062;-78
2023/12/27 04:05:06;;;;;;;11.18;4.35;;;3.10;99.90;;;;;;4956909;28;20090;-74
2023/12/27 04:07:32;;;;;;;6.80;3.50;;;3.10;99.90;;;;;;4958064;28;20043;-74
2023/12/27 04:09:57;;;;;;;9.18;3.92;;;3.10;99.90;;;;;;4954829;28;20045;-74
2023/12/27 04:12:23;;;;;;;8.23;3.90;;;3.10;99.90;;;;;;4961167;28;20069;-76
2023/12/27 04:14:48;;;;;;;7.40;3.60;;;3.00;99.90;;;;;;4960121;28;20450;-75
2023/12/27 04:17:15;;;;;;;7.57;3.70;;;3.00;99.90;;;;;;4955705;28;20198;-75
2023/12/27 04:19:40;;;;;;;9.18;3.88;;;3.00;99.90;;;;;;4954898;28;20055;-76
2023/12/27 04:22:06;;;;;;;7.32;3.90;;;3.10;99.90;;;;;;4953467;28;20063;-74
2023/12/27 04:24:31;;;;;;;8.75;3.90;;;3.10;99.90;;;;;;4962301;28;20075;-76
2023/12/27 04:26:57;;;;;;;9.88;4.10;;;3.00;99.90;;;;;;4959398;28;20098;-74
2023/12/27 04:29:22;;;;;;;8.45;4.13;;;3.00;99.90;;;;;;4958644;28;20051;-74
2023/12/27 04:31:48;;;;;;;8.88;4.18;;;3.00;99.90;;;;;;4958765;28;20043;-74
2023/12/27 04:34:13;;;;;;;8.77;4.25;;;3.00;99.90;;;;;;4956362;28;20050;-82
2023/12/27 04:36:39;;;;;;;10.30;4.85;;;3.10;99.90;;;;;;4958396;28;20054;-74
2023/12/27 04:39:06;;;;;;;8.93;4.65;;;3.10;99.90;;;;;;4954879;28;20035;-74
2023/12/27 04:41:32;;;;;;;11.30;5.15;;;3.10;99.90;;;;;;4985874;28;20093;-76
2023/12/27 04:43:57;;;;;;;13.00;5.60;;;3.10;99.90;;;;;;4957985;28;20082;-74
2023/12/27 04:46:23;;;;;;;12.32;5.70;;;3.20;99.90;;;;;;4958746;28;20057;-74
2023/12/27 04:48:48;;;;;;;15.30;5.63;;;3.20;99.90;;;;;;4958041;28;20043;-74
2023/12/27 04:51:14;;;;;;;8.02;5.22;;;3.20;99.90;;;;;;4955179;28;20053;-80
2023/12/27 04:53:39;;;;;;;8.73;5.15;;;3.20;99.90;;;;;;4959852;28;20043;-75
2023/12/27 04:56:05;;;;;;;10.00;5.28;;;3.30;99.90;;;;;;4954534;28;20055;-74
2023/12/27 04:58:35;;;;;;;10.45;5.40;;;3.20;99.90;;;;;;4944586;28;20050;-74
2023/12/27 05:01:06;;;;;;;10.10;5.32;;;3.30;99.90;;;;;;4958963;28;20812;-74
2023/12/27 05:03:37;;;;;;;9.25;5.45;;;3.30;99.90;;;;;;4955637;28;20482;-75
2023/12/27 05:06:07;;;;;;;9.80;5.20;;;3.30;99.90;;;;;;4956843;28;20031;-78
2023/12/27 05:08:32;;;;;;;10.10;5.63;;;3.30;99.90;;;;;;4978017;28;20051;-79
2023/12/27 05:10:58;;;;;;;12.48;5.90;;;3.30;99.90;;;;;;4959514;28;20478;-75
2023/12/27 05:13:23;;;;;;;11.85;5.68;;;3.30;99.90;;;;;;4960579;28;20038;-74
2023/12/27 05:15:49;;;;;;;12.52;6.07;;;3.30;99.90;;;;;;4966259;28;20154;-76
2023/12/27 05:18:14;;;;;;;13.43;6.38;;;3.40;99.90;;;;;;4959598;28;20042;-74
2023/12/27 05:20:40;;;;;;;11.50;6.30;;;3.40;99.90;;;;;;4972044;28;20665;-74
2023/12/27 05:23:06;;;;;;;12.43;6.35;;;3.40;99.90;;;;;;4968151;28;20050;-74
2023/12/27 05:25:31;;;;;;;13.88;6.70;;;3.40;99.90;;;;;;4958677;28;20035;-74
2023/12/27 05:27:57;;;;;;;15.70;6.55;;;3.40;99.90;;;;;;4940612;28;20038;-74
2023/12/27 05:30:22;;;;;;;16.13;7.03;;;3.40;99.90;;;;;;4960497;28;20077;-74
2023/12/27 05:32:48;;;;;;;12.35;6.35;;;3.40;99.90;;;;;;4960388;28;20153;-74
2023/12/27 05:35:13;;;;;;;13.00;6.50;;;3.40;99.90;;;;;;4957745;28;20074;-75
2023/12/27 05:37:39;;;;;;;13.40;6.65;;;3.40;99.90;;;;;;4958593;28;20062;-74
2023/12/27 05:40:05;;;;;;;12.07;7.22;;;3.40;99.90;;;;;;4953860;28;20186;-74
2023/12/27 05:42:30;;;;;;;11.52;6.45;;;3.50;99.90;;;;;;4960942;28;20124;-74
2023/12/27 05:44:56;;;;;;;13.10;6.18;;;3.50;99.90;;;;;;4975772;28;20043;-74
2023/12/27 05:47:22;;;;;;;12.05;6.85;;;3.50;99.90;;;;;;4957187;28;20043;-76
2023/12/27 05:49:48;;;;;;;11.18;7.00;;;3.50;99.90;;;;;;4957112;28;20043;-75
2023/12/27 05:52:13;;;;;;;13.50;6.82;;;3.50;99.90;;;;;;4959388;28;20046;-77
2023/12/27 05:54:39;;;;;;;13.30;6.53;;;3.50;99.90;;;;;;4959043;28;20051;-75
2023/12/27 05:57:05;;;;;;;16.63;7.30;;;3.50;99.90;;;;;;4972220;28;20042;-75
2023/12/27 05:59:30;;;;;;;14.02;7.25;;;3.50;99.90;;;;;;4958627;28;20051;-75
2023/12/27 06:01:56;;;;;;;17.38;7.43;;;3.50;99.90;;;;;;4970818;28;20034;-77
2023/12/27 06:04:22;;;;;;;15.90;7.35;;;3.50;99.90;;;;;;4960920;28;20090;-74
2023/12/27 06:06:50;;;;;;;12.30;6.78;;;3.50;99.90;;;;;;4955877;28;20039;-74
2023/12/27 06:09:17;;;;;;;14.90;6.95;;;3.50;99.90;;;;;;4953804;28;20043;-78
2023/12/27 06:11:42;;;;;;;13.60;7.20;;;3.50;99.90;;;;;;4961700;28;20035;-76
2023/12/27 06:14:08;;;;;;;13.90;7.32;;;3.50;99.90;;;;;;4963278;28;20169;-74
2023/12/27 06:16:33;;;;;;;15.60;7.60;;;3.50;99.90;;;;;;4962917;28;20560;-74
2023/12/27 06:19:00;;;;;;;13.63;7.07;;;3.50;99.90;;;;;;4958608;28;20047;-76
2023/12/27 06:21:25;;;;;;;14.95;7.72;;;3.60;99.90;;;;;;4958629;28;20061;-74
2023/12/27 06:23:51;;;;;;;13.73;7.53;;;3.60;99.90;;;;;;4959873;28;20059;-76
2023/12/27 06:26:17;;;;;;;15.15;7.47;;;3.60;99.90;;;;;;4957224;28;20046;-78
2023/12/27 06:28:44;;;;;;;14.23;7.63;;;3.60;99.90;;;;;;4956129;28;20126;-75
2023/12/27 06:31:10;;;;;;;14.05;7.03;;;3.60;99.90;;;;;;4956093;28;20052;-75
2023/12/27 06:33:35;;;;;;;16.60;7.97;;;3.70;99.90;;;;;;4956883;28;20043;-75
2023/12/27 06:36:01;;;;;;;11.98;7.15;;;3.60;99.90;;;;;;4962706;28;20087;-75
2023/12/27 06:38:28;;;;;;;17.75;7.35;;;3.70;99.90;;;;;;4950986;28;20039;-75
2023/12/27 06:40:54;;;;;;;16.05;7.18;;;3.70;99.90;;;;;;4961134;28;20042;-75
2023/12/27 06:43:20;;;;;;;16.15;7.55;;;3.70;99.90;;;;;;4952789;28;20114;-74
2023/12/27 06:45:45;;;;;;;16.10;6.85;;;3.70;99.90;;;;;;4965125;28;20052;-74
2023/12/27 06:48:11;;;;;;;21.15;7.63;;;3.80;99.90;;;;;;4954819;28;20047;-79
2023/12/27 06:50:37;;;;;;;18.00;7.95;;;3.80;99.90;;;;;;4956066;28;20043;-76
2023/12/27 06:53:03;;;;;;;13.18;7.65;;;3.80;99.90;;;;;;4937351;28;20126;-74
2023/12/27 06:55:28;;;;;;;17.88;8.05;;;3.80;99.90;;;;;;4967263;28;20043;-74
2023/12/27 06:57:54;;;;;;;16.65;7.65;;;3.80;99.90;;;;;;4960868;28;20049;-74
2023/12/27 07:00:19;;;;;;;19.02;8.40;;;3.90;99.90;;;;;;4952447;28;20102;-78
2023/12/27 07:02:45;;;;;;;18.30;8.48;;;4.00;99.90;;;;;;4965747;28;20082;-74
2023/12/27 07:05:12;;;;;;;18.40;7.85;;;3.90;99.90;;;;;;4949508;28;20047;-74
2023/12/27 07:07:37;;;;;;;15.77;7.97;;;3.90;99.90;;;;;;4972843;28;20038;-74
2023/12/27 07:10:04;;;;;;;15.18;7.70;;;3.90;99.90;;;;;;4937197;28;20058;-79
2023/12/27 07:12:30;;;;;;;23.02;8.68;;;3.90;99.90;;;;;;4955723;28;20057;-74
2023/12/27 07:14:57;;;;;;;14.55;7.55;;;4.00;99.90;;;;;;4964649;28;20058;-74
2023/12/27 07:17:23;;;;;;;16.08;7.65;;;3.90;99.90;;;;;;4953973;28;20058;-75
2023/12/27 07:19:49;;;;;;;18.60;7.53;;;3.90;99.90;;;;;;4959708;28;20046;-74
2023/12/27 07:22:15;;;;;;;18.80;7.68;;;4.00;99.90;;;;;;4950457;28;20055;-74
2023/12/27 07:24:40;;;;;;;13.50;7.07;;;4.00;99.90;;;;;;4965521;28;20081;-77
2023/12/27 07:27:06;;;;;;;17.85;6.95;;;4.00;99.90;;;;;;4962953;28;20047;-75
2023/12/27 07:29:34;;;;;;;13.68;6.80;;;4.00;99.90;;;;;;4963234;28;20086;-74
2023/12/27 07:32:00;;;;;;;18.55;7.40;;;4.00;99.90;;;;;;4939108;28;20047;-74
2023/12/27 07:34:25;;;;;;;19.77;6.15;;;4.10;99.90;;;;;;4960796;28;20073;-74
2023/12/27 07:36:51;;;;;;;16.27;6.35;;;4.10;99.90;;;;;;4965327;28;20142;-76
2023/12/27 07:39:16;;;;;;;14.85;6.60;;;4.10;99.90;;;;;;4956231;28;20379;-74
2023/12/27 07:41:42;;;;;;;15.55;6.25;;;4.10;99.90;;;;;;4957513;28;20039;-77
2023/12/27 07:44:08;;;;;;;15.75;5.68;;;4.10;99.90;;;;;;4951486;28;20050;-74
2023/12/27 07:46:34;;;;;;;15.70;5.95;;;4.10;99.90;;;;;;4956481;28;20050;-74
2023/12/27 07:49:01;;;;;;;12.13;6.00;;;4.10;99.90;;;;;;4968109;28;20046;-76
2023/12/27 07:51:27;;;;;;;12.70;5.78;;;4.10;99.90;;;;;;4967710;28;20050;-77
2023/12/27 07:53:52;;;;;;;17.02;5.90;;;4.10;99.90;;;;;;4975818;28;20043;-74
2023/12/27 07:56:18;;;;;;;20.10;6.00;;;4.20;99.90;;;;;;4974918;28;20042;-74
2023/12/27 07:58:46;;;;;;;18.65;5.75;;;4.20;99.90;;;;;;4970523;28;20046;-74
2023/12/27 08:01:11;;;;;;;18.50;6.03;;;4.20;99.90;;;;;;4959301;28;20047;-76
2023/12/27 08:03:39;;;;;;;17.35;5.60;;;4.20;99.90;;;;;;4959325;28;20532;-74
2023/12/27 08:06:06;;;;;;;17.42;6.63;;;5.00;99.90;;;;;;4969260;28;20038;-74
2023/12/27 08:08:34;;;;;;;13.98;6.18;;;4.20;99.90;;;;;;4952683;28;20043;-76
2023/12/27 08:11:03;;;;;;;16.17;6.93;;;4.30;99.90;;;;;;4960765;28;20497;-74
2023/12/27 08:13:31;;;;;;;17.73;7.28;;;4.30;99.90;;;;;;4956608;28;20057;-75
2023/12/27 08:15:56;;;;;;;15.77;6.78;;;4.30;99.90;;;;;;4956433;28;20489;-74
2023/12/27 08:18:22;;;;;;;16.42;7.15;;;4.30;99.90;;;;;;4968058;28;20110;-75
2023/12/27 08:20:47;;;;;;;15.30;6.72;;;4.30;99.90;;;;;;4955964;28;20071;-74
2023/12/27 08:23:16;;;;;;;17.63;7.65;;;4.30;99.90;;;;;;4961158;28;20634;-74
2023/12/27 08:25:42;;;;;;;16.73;7.40;;;4.30;99.90;;;;;;4977723;28;20062;-76
2023/12/27 08:28:08;;;;;;;15.40;7.45;;;4.40;99.90;;;;;;4964003;28;20090;-74
2023/12/27 08:30:34;;;;;;;17.50;8.10;;;4.40;99.90;;;;;;4952443;28;20047;-75
2023/12/27 08:33:00;;;;;;;20.77;7.85;;;4.40;99.90;;;;;;4956973;28;20505;-74
2023/12/27 08:35:26;;;;;;;16.40;7.63;;;4.40;99.90;;;;;;4979347;28;20055;-74
2023/12/27 08:37:51;;;;;;;18.92;8.63;;;4.40;99.90;;;;;;4960996;28;20038;-75
2023/12/27 08:40:18;;;;;;;16.55;8.63;;;4.40;99.90;;;;;;4954239;28;20035;-74
2023/12/27 08:42:44;;;;;;;18.40;8.68;;;4.50;99.90;;;;;;4952551;28;20146;-75
2023/12/27 08:45:11;;;;;;;17.13;8.82;;;4.50;99.90;;;;;;4956115;28;20051;-74
2023/12/27 08:47:36;;;;;;;21.35;9.05;;;4.50;99.90;;;;;;4981351;28;20047;-77
2023/12/27 08:50:03;;;;;;;25.10;9.57;;;4.60;99.90;;;;;;4976139;28;20106;-74
2023/12/27 08:52:29;;;;;;;24.23;10.32;;;4.60;99.90;;;;;;4951901;28;20051;-75
2023/12/27 08:54:54;;;;;;;17.98;9.23;;;4.60;99.90;;;;;;4940889;28;20042;-74
2023/12/27 08:57:20;;;;;;;22.55;9.98;;;4.60;99.90;;;;;;4960000;28;20035;-74
2023/12/27 08:59:45;;;;;;;21.58;9.98;;;4.60;99.90;;;;;;4958621;28;20047;-74
2023/12/27 09:02:11;;;;;;;22.33;10.05;;;4.70;99.90;;;;;;4958011;28;20125;-78
2023/12/27 09:04:36;;;;;;;22.73;9.93;;;4.60;99.90;;;;;;4951137;28;20051;-74
2023/12/27 09:07:02;;;;;;;16.30;10.20;;;4.70;99.90;;;;;;4955012;28;20034;-75
2023/12/27 09:09:28;;;;;;;19.77;9.73;;;4.80;99.90;;;;;;4957281;28;20181;-74
2023/12/27 09:11:54;;;;;;;28.20;10.20;;;4.80;99.90;;;;;;4982452;28;20556;-74
2023/12/27 09:14:20;;;;;;;24.38;9.73;;;4.80;99.90;;;;;;4957963;28;20042;-74
2023/12/27 09:16:45;;;;;;;20.02;9.48;;;4.80;99.90;;;;;;4964310;28;20062;-77
2023/12/27 09:19:11;;;;;;;22.65;10.70;;;4.80;99.90;;;;;;4957537;28;20140;-74
2023/12/27 09:21:47;;;;;;;24.05;10.13;;;4.80;99.90;;;;;;4958729;28;20035;-74
2023/12/27 09:24:13;;;;;;;21.65;10.25;;;4.80;99.90;;;;;;4954131;28;20078;-75
2023/12/27 09:26:39;;;;;;;22.33;9.90;;;4.90;99.90;;;;;;4956579;28;20182;-75
2023/12/27 09:29:05;;;;;;;27.73;11.27;;;4.90;99.90;;;;;;4957218;28;20129;-74
2023/12/27 09:31:31;;;;;;;25.67;10.63;;;4.90;99.90;;;;;;4955712;28;20051;-76
2023/12/27 09:33:59;;;;;;;24.20;11.27;;;4.90;99.90;;;;;;4940460;28;20514;-74
2023/12/27 09:36:25;;;;;;;23.13;10.85;;;4.90;99.90;;;;;;4960630;28;20047;-76
2023/12/27 09:38:51;;;;;;;28.98;11.10;;;4.90;99.90;;;;;;4956808;28;20043;-75
2023/12/27 09:41:16;;;;;;;23.75;10.93;;;5.00;99.90;;;;;;4958495;28;20759;-75
2023/12/27 09:43:45;;;;;;;23.73;10.90;;;5.00;99.90;;;;;;4954786;28;20055;-75
2023/12/27 09:46:14;;;;;;;23.35;11.27;;;5.00;99.90;;;;;;4964497;28;20055;-74
2023/12/27 09:48:42;;;;;;;23.13;10.70;;;5.00;99.90;;;;;;4953532;28;20048;-74
2023/12/27 09:51:11;;;;;;;24.90;12.00;;;5.00;99.90;;;;;;4960886;28;20046;-74
2023/12/27 09:53:36;;;;;;;23.15;11.77;;;5.10;99.90;;;;;;4957692;28;20090;-77
2023/12/27 09:56:03;;;;;;;25.95;11.45;;;5.10;99.90;;;;;;4965795;28;20043;-74
2023/12/27 09:58:29;;;;;;;25.25;11.52;;;5.10;99.90;;;;;;4964732;28;20043;-74
2023/12/27 10:01:00;;;;;;;22.33;10.75;;;5.10;99.90;;;;;;4950541;28;20126;-77
2023/12/27 10:03:35;;;;;;;29.08;11.50;;;5.10;99.90;;;;;;4952071;28;20059;-75
2023/12/27 10:06:23;;;;;;;19.02;11.45;;;5.10;99.90;;;;;;4953921;28;20106;-74
2023/12/27 10:08:50;;;;;;;21.92;10.77;;;5.20;99.90;;;;;;4957278;28;20072;-75
2023/12/27 10:11:17;;;;;;;24.83;11.13;;;5.20;99.90;;;;;;4968392;28;20042;-74
2023/12/27 10:13:44;;;;;;;19.90;10.90;;;5.20;99.90;;;;;;4938963;28;20128;-74
2023/12/27 10:16:10;;;;;;;25.38;12.10;;;5.20;99.90;;;;;;4960139;28;20801;-75
2023/12/27 10:18:36;;;;;;;21.63;11.23;;;5.30;99.90;;;;;;4952009;28;20054;-75
2023/12/27 10:21:01;;;;;;;21.02;11.48;;;5.20;99.90;;;;;;4943129;28;20071;-77
2023/12/27 10:23:27;;;;;;;25.10;11.38;;;5.30;99.90;;;;;;4950082;28;20054;-77
2023/12/27 10:25:52;;;;;;;22.13;11.10;;;5.20;99.90;;;;;;4953695;28;20455;-74
2023/12/27 10:28:24;;;;;;;25.38;10.90;;;5.30;99.90;;;;;;4955955;28;20414;-74
2023/12/27 10:30:51;;;;;;;24.35;11.88;;;5.30;99.90;;;;;;4951895;28;20062;-74
2023/12/27 10:33:17;;;;;;;27.83;11.88;;;5.30;99.90;;;;;;4956300;28;20062;-74
2023/12/27 10:35:43;;;;;;;29.95;12.20;;;5.30;99.90;;;;;;4958713;28;20058;-73
2023/12/27 10:38:08;;;;;;;25.02;11.40;;;5.30;99.90;;;;;;4956425;28;20050;-73
2023/12/27 10:40:35;;;;;;;21.50;11.35;;;5.30;99.90;;;;;;4964888;28;20070;-74
2023/12/27 10:43:01;;;;;;;27.52;11.75;;;5.30;99.90;;;;;;4952954;28;20098;-74
2023/12/27 10:45:26;;;;;;;25.27;11.50;;;5.40;99.90;;;;;;4949862;28;20581;-73
2023/12/27 10:47:59;;;;;;;25.17;11.82;;;5.40;99.90;;;;;;4952969;28;20093;-76
2023/12/27 10:50:30;;;;;;;27.00;12.00;;;5.40;99.90;;;;;;4967539;28;20047;-74
2023/12/27 10:53:06;;;;;;;27.13;12.55;;;5.40;99.90;;;;;;4964217;28;20047;-75
2023/12/27 10:55:36;;;;;;;22.80;12.13;;;5.40;99.90;;;;;;4958893;28;20089;-73
2023/12/27 10:58:05;;;;;;;26.90;12.63;;;5.50;99.90;;;;;;4962984;28;20146;-75
2023/12/27 11:00:32;;;;;;;25.98;11.93;;;5.50;99.90;;;;;;4956211;28;20043;-74
2023/12/27 11:02:59;;;;;;;27.58;12.55;;;5.50;99.90;;;;;;4951281;28;20068;-76
2023/12/27 11:05:26;;;;;;;22.90;12.20;;;5.50;99.90;;;;;;4956017;28;20134;-75
2023/12/27 11:07:56;;;;;;;23.77;12.02;;;5.50;99.90;;;;;;4953085;28;20767;-73
2023/12/27 11:10:23;;;;;;;26.65;12.27;;;5.50;99.90;;;;;;4957609;28;20038;-74
2023/12/27 11:12:50;;;;;;;25.05;12.93;;;5.50;99.90;;;;;;4956513;28;20047;-75
2023/12/27 11:15:20;;;;;;;26.67;12.73;;;5.60;99.90;;;;;;4964691;28;20051;-73
2023/12/27 11:17:48;;;;;;;23.63;12.40;;;5.60;99.90;;;;;;4973964;28;20097;-74
2023/12/27 11:20:14;;;;;;;22.17;12.55;;;5.60;99.90;;;;;;4959058;28;20066;-74
2023/12/27 11:22:42;;;;;;;21.15;13.02;;;5.60;99.90;;;;;;4956240;28;20054;-73
2023/12/27 11:25:08;;;;;;;25.92;12.82;;;5.60;99.90;;;;;;4956575;28;20055;-75
2023/12/27 11:27:35;;;;;;;23.95;13.18;;;5.60;99.90;;;;;;4953225;28;20043;-74
2023/12/27 11:30:02;;;;;;;26.70;12.57;;;5.60;99.90;;;;;;4952539;28;20810;-75
2023/12/27 11:32:30;;;;;;;24.48;12.57;;;5.60;99.90;;;;;;4937222;28;20086;-74
2023/12/27 11:34:56;;;;;;;28.88;13.52;;;5.70;99.90;;;;;;4961730;28;20043;-75
2023/12/27 11:37:23;;;;;;;21.38;12.65;;;5.70;99.90;;;;;;4953775;28;20725;-74
2023/12/27 11:39:51;;;;;;;24.33;13.27;;;5.70;99.90;;;;;;4972128;28;20051;-75
2023/12/27 11:42:17;;;;;;;27.15;13.20;;;5.70;99.90;;;;;;4962294;28;20061;-73
2023/12/27 11:44:53;;;;;;;22.58;12.82;;;5.70;99.90;;;;;;4964470;28;20760;-74
2023/12/27 11:47:22;;;;;;;23.48;12.80;;;5.70;99.90;;;;;;4970680;28;20086;-74
2023/12/27 11:50:13;;;;;;;25.13;13.57;;;5.80;99.90;;;;;;4961435;28;20128;-74
2023/12/27 11:52:46;;;;;;;26.20;13.07;;;5.80;99.90;;;;;;4965085;28;20490;-73
2023/12/27 11:55:16;;;;;;;23.63;13.50;;;5.80;99.90;;;;;;4960567;28;20784;-76
2023/12/27 11:57:45;;;;;;;25.42;13.70;;;5.80;99.90;;;;;;4960854;28;20118;-74
2023/12/27 12:00:24;;;;;;;22.45;13.75;;;5.90;99.90;;;;;;4962602;28;20046;-75
2023/12/27 12:02:58;;;;;;;25.00;14.48;;;5.80;99.90;;;;;;4956820;28;20192;-75
2023/12/27 12:05:48;;;;;;;24.13;14.90;;;5.90;99.90;;;;;;4960446;28;20069;-75
2023/12/27 12:08:25;;;;;;;28.42;14.82;;;6.00;99.90;;;;;;4956504;28;20047;-74
2023/12/27 12:11:06;;;;;;;25.92;14.55;;;6.00;99.90;;;;;;4950973;28;20066;-75
2023/12/27 12:13:33;;;;;;;30.93;15.87;;;6.00;99.90;;;;;;4957214;28;20050;-76
2023/12/27 12:15:58;;;;;;;33.83;17.20;;;6.00;99.90;;;;;;4960321;28;20066;-75
2023/12/27 12:18:25;;;;;;;30.77;16.52;;;6.00;99.90;;;;;;4956194;28;20113;-74
2023/12/27 12:20:50;;;;;;;29.25;16.08;;;6.10;99.90;;;;;;4960570;28;20503;-74
2023/12/27 12:23:16;;;;;;;35.78;16.88;;;6.10;99.90;;;;;;4961572;28;20075;-75
2023/12/27 12:25:42;;;;;;;29.60;16.42;;;6.10;99.90;;;;;;4956014;28;20414;-74
2023/12/27 12:28:08;;;;;;;28.48;17.17;;;6.20;99.90;;;;;;4961468;28;20030;-74
2023/12/27 12:30:35;;;;;;;33.85;17.92;;;6.20;99.90;;;;;;4960031;28;20050;-74
2023/12/27 12:33:01;;;;;;;31.52;18.10;;;6.20;99.90;;;;;;4961320;28;20137;-75
2023/12/27 12:35:27;;;;;;;33.00;18.02;;;6.20;99.90;;;;;;4955789;28;20066;-76
2023/12/27 12:37:53;;;;;;;30.75;17.52;;;6.30;99.90;;;;;;4964540;28;20038;-74
2023/12/27 12:40:18;;;;;;;35.63;20.13;;;6.30;99.90;;;;;;4954399;28;20061;-78
2023/12/27 12:42:44;;;;;;;35.17;19.65;;;6.30;99.90;;;;;;4963831;28;20038;-77